Latest Coastal Weather Observations for Bedout Island

IDW60701

Issued at 6:25 pm WST Tuesday 21 October 2014 (issued every 10 minutes, with the page automatically refreshed every 10 minutes)

About coastal observations | Map of coastal stations | Coastal observations for WA | Marine services | Other Formats
Station Details ID: 004100 Name: BEDOUT ISLAND Lat: -19.59 Lon: 119.10 Height: 8.6 m
Data from the previous 72 hours. | See also: Recent months for locations in Western Australia
Date/Time
WST
Temp

°C
Wind Pressure Rain
since 9am
mm
Weather Cloud Vis
km
Sea
Height
m
Swell
Dir
 
Speed
knots
Gust
knots
hPa Trend Height
m
Period
s
Dir
21/06:00pm 27.0 W 14 16 1012.1 - - - - - - - - -
21/05:30pm 27.6 WSW 14 16 1012.1 - - - - - - - - -
21/05:00pm 28.3 W 15 17 1011.7 - - - - - - - - -
21/04:30pm 29.2 W 16 18 1011.6 - - - - - - - - -
21/04:00pm 29.5 W 15 17 1011.6 - - - - - - - - -
21/03:30pm 29.9 W 14 17 1011.7 - - - - - - - - -
21/03:00pm 30.3 W 16 17 1011.8 - - - - - - - - -
21/02:30pm 30.7 WSW 16 18 1012.0 - - - - - - - - -
21/02:00pm 30.4 WSW 15 19 1012.3 - - - - - - - - -
21/01:30pm 30.8 W 13 15 1013.0 - - - - - - - - -
21/01:00pm 30.8 WSW 14 16 1013.4 - - - - - - - - -
21/12:30pm 30.6 WSW 15 17 1013.8 - - - - - - - - -
21/12:00pm 30.1 WSW 15 17 1014.2 - - - - - - - - -
21/11:30am 30.4 WSW 17 19 1014.5 - - - - - - - - -
21/11:00am 29.5 WSW 18 20 1014.8 - - - - - - - - -
21/10:30am 29.3 SW 17 19 1015.1 - - - - - - - - -
21/10:00am 29.7 WSW 15 17 1015.8 - - - - - - - - -
21/09:30am 29.5 WSW 14 15 1016.2 - - - - - - - - -
21/09:00am 29.1 WSW 14 15 1016.1 - - - - - - - - -
21/08:30am 28.3 WSW 14 15 1016.2 - - - - - - - - -
21/08:00am 28.0 WSW 13 14 1016.2 - - - - - - - - -
21/07:30am 27.5 WSW 13 15 1015.8 - - - - - - - - -
21/07:00am 26.9 WSW 11 13 1015.6 - - - - - - - - -
21/06:30am 25.8 WSW 11 13 1015.5 - - - - - - - - -
21/06:00am 24.8 WSW 13 14 1015.0 - - - - - - - - -
21/05:30am 24.2 WSW 13 15 1014.7 - - - - - - - - -
21/05:00am 24.7 WSW 13 15 1014.5 - - - - - - - - -
21/04:30am 24.6 WSW 14 16 1014.2 - - - - - - - - -
21/04:00am 24.6 SW 15 17 1014.0 - - - - - - - - -
21/03:30am 24.6 WSW 15 18 1013.8 - - - - - - - - -
21/03:00am 25.0 WSW 19 21 1013.5 - - - - - - - - -
21/02:30am 24.9 SW 20 22 1013.4 - - - - - - - - -
21/02:00am 24.9 WSW 17 20 1013.4 - - - - - - - - -
21/01:30am 24.8 WSW 18 20 1013.4 - - - - - - - - -
21/01:00am 24.9 WSW 16 19 1013.8 - - - - - - - - -
21/12:30am 25.0 WSW 17 19 1014.1 - - - - - - - - -
21/12:00am 25.0 WSW 17 19 1014.1 - - - - - - - - -
 
Date/Time
WST
Temp

°C
Wind Pressure Rain
since 9am
mm
Weather Cloud Vis
km
Sea
Height
m
Swell
Dir
 
Speed
knots
Gust
knots
hPa Trend Height
m
Period
s
Dir
20/11:30pm 25.1 W 16 18 1014.7 - - - - - - - - -
20/11:00pm 25.2 W 14 16 1015.0 - - - - - - - - -
20/10:30pm 24.9 W 15 17 1015.1 - - - - - - - - -
20/10:00pm 25.0 W 15 17 1015.3 - - - - - - - - -
20/09:30pm 25.1 W 16 17 1015.3 - - - - - - - - -
20/09:00pm 25.3 W 16 19 1015.1 - - - - - - - - -
20/08:30pm 25.0 W 16 18 1015.0 - - - - - - - - -
20/08:00pm 25.0 W 15 17 1014.8 - - - - - - - - -
20/07:30pm 25.2 WNW 15 17 1014.4 - - - - - - - - -
20/07:00pm 25.2 WNW 15 16 1014.0 - - - - - - - - -
20/06:30pm 25.2 WNW 14 16 1013.6 - - - - - - - - -
20/06:00pm 25.7 WNW 14 16 1013.2 - - - - - - - - -
20/05:30pm 26.4 WNW 14 15 1012.9 - - - - - - - - -
20/05:00pm 27.3 WNW 14 16 1012.7 - - - - - - - - -
20/04:30pm 27.5 W 15 17 1012.5 - - - - - - - - -
20/04:00pm 28.2 W 15 17 1012.5 - - - - - - - - -
20/03:30pm 28.7 W 15 17 1012.6 - - - - - - - - -
20/03:00pm 29.8 W 14 15 1012.6 - - - - - - - - -
20/02:30pm 29.5 W 13 15 1012.8 - - - - - - - - -
20/02:00pm 30.2 W 13 14 1013.0 - - - - - - - - -
20/01:30pm 30.1 W 11 13 1013.5 - - - - - - - - -
20/01:00pm 30.2 WSW 12 14 1013.7 - - - - - - - - -
20/12:30pm 29.9 WSW 13 15 1014.0 - - - - - - - - -
20/12:00pm 29.9 WSW 12 14 1014.4 - - - - - - - - -
20/11:30am 29.9 WSW 12 14 1014.9 - - - - - - - - -
20/11:00am 29.6 W 9 11 1015.3 - - - - - - - - -
20/10:30am 29.0 W 9 11 1015.5 - - - - - - - - -
20/10:00am 29.6 W 10 11 1015.8 - - - - - - - - -
20/09:30am 28.9 WSW 10 11 1015.9 - - - - - - - - -
20/09:00am 28.6 WSW 11 12 1016.0 - - - - - - - - -
20/08:30am 27.9 WSW 12 14 1016.1 - - - - - - - - -
20/08:00am 27.5 WSW 11 13 1015.9 - - - - - - - - -
20/07:30am 26.6 WSW 13 16 1015.5 - - - - - - - - -
20/07:00am 25.7 WSW 14 16 1015.2 - - - - - - - - -
20/06:30am 25.0 WSW 16 17 1014.8 - - - - - - - - -
20/06:00am 24.4 WSW 16 19 1014.4 - - - - - - - - -
20/05:30am 24.2 WSW 17 18 1014.2 - - - - - - - - -
20/05:00am 24.0 WSW 17 20 1013.9 - - - - - - - - -
20/04:30am 24.1 WSW 17 20 1013.5 - - - - - - - - -
20/04:00am 24.1 WSW 19 21 1013.2 - - - - - - - - -
20/03:30am 24.1 WSW 18 21 1013.0 - - - - - - - - -
20/03:00am 24.1 WSW 17 21 1012.9 - - - - - - - - -
20/02:30am 24.1 W 18 20 1012.8 - - - - - - - - -
20/02:00am 24.4 W 18 21 1012.9 - - - - - - - - -
20/01:30am 24.2 W 17 19 1013.1 - - - - - - - - -
20/01:00am 24.4 W 16 18 1013.2 - - - - - - - - -
20/12:30am 24.1 W 15 17 1013.5 - - - - - - - - -
20/12:00am 24.3 W 15 17 1013.6 - - - - - - - - -
 
Date/Time
WST
Temp

°C
Wind Pressure Rain
since 9am
mm
Weather Cloud Vis
km
Sea
Height
m
Swell
Dir
 
Speed
knots
Gust
knots
hPa Trend Height
m
Period
s
Dir
19/11:30pm 24.1 W 15 17 1014.0 - - - - - - - - -
19/11:00pm 24.3 W 15 17 1014.3 - - - - - - - - -
19/10:30pm 24.4 W 14 16 1014.4 - - - - - - - - -
19/10:00pm 24.5 W 14 17 1014.5 - - - - - - - - -
19/09:30pm 24.6 W 16 19 1014.3 - - - - - - - - -
19/09:00pm 24.5 W 16 19 1014.0 - - - - - - - - -
19/08:30pm 24.6 WNW 15 16 1013.8 - - - - - - - - -
19/08:00pm 24.6 WNW 14 16 1013.5 - - - - - - - - -
19/07:30pm 24.8 W 14 16 1013.2 - - - - - - - - -
19/07:00pm 24.7 W 15 16 1012.8 - - - - - - - - -
19/06:30pm 25.0 W 16 18 1012.4 - - - - - - - - -
19/06:00pm 25.1 W 14 16 1012.1 - - - - - - - - -
19/05:30pm 26.0 W 14 16 1012.0 - - - - - - - - -
19/05:00pm 26.7 W 14 16 1011.9 - - - - - - - - -
19/04:30pm 27.5 W 14 16 1011.9 - - - - - - - - -
19/04:00pm 28.1 W 15 17 1011.9 - - - - - - - - -
19/03:30pm 28.6 W 14 16 1012.0 - - - - - - - - -
19/03:00pm 28.8 W 15 17 1011.9 - - - - - - - - -
19/02:30pm 29.2 W 16 18 1012.2 - - - - - - - - -
19/02:00pm 28.9 W 17 20 1012.4 - - - - - - - - -
19/01:30pm 29.5 W 17 19 1012.7 - - - - - - - - -
19/01:00pm 29.2 W 18 21 1013.1 - - - - - - - - -
19/12:30pm 29.1 WSW 15 17 1013.4 - - - - - - - - -
19/12:00pm 29.3 WSW 17 20 1013.6 - - - - - - - - -
19/11:30am 28.4 WSW 20 23 1013.6 - - - - - - - - -
19/11:00am 28.7 WSW 20 23 1014.1 - - - - - - - - -
19/10:30am 28.1 WSW 20 23 1014.4 - - - - - - - - -
19/10:00am 28.0 WSW 20 23 1014.6 - - - - - - - - -
19/09:30am 27.7 WSW 19 23 1014.6 - - - - - - - - -
19/09:00am 27.3 WSW 18 21 1014.7 - - - - - - - - -
19/08:30am 26.7 WSW 18 21 1014.8 - - - - - - - - -
19/08:00am 26.5 WSW 18 20 1014.7 - - - - - - - - -
19/07:30am 25.9 WSW 17 20 1014.4 - - - - - - - - -
19/07:00am 25.2 WSW 18 21 1013.9 - - - - - - - - -
19/06:30am 24.6 WSW 18 22 1013.4 - - - - - - - - -
19/06:00am 24.0 W 18 21 1012.9 - - - - - - - - -
19/05:30am 23.8 W 16 18 1012.6 - - - - - - - - -
19/05:00am 23.9 W 15 17 1012.3 - - - - - - - - -
19/04:30am 24.0 W 16 19 1012.1 - - - - - - - - -
19/04:00am 24.0 W 18 21 1012.0 - - - - - - - - -
19/03:30am 23.9 W 17 19 1012.1 - - - - - - - - -
19/03:00am 24.1 W 17 19 1011.9 - - - - - - - - -
19/02:30am 24.1 W 17 20 1012.1 - - - - - - - - -
19/02:00am 24.1 W 18 20 1012.2 - - - - - - - - -
19/01:30am 24.2 W 17 20 1012.3 - - - - - - - - -
19/01:00am 24.2 W 17 19 1012.5 - - - - - - - - -
19/12:30am 24.3 W 18 21 1012.8 - - - - - - - - -
19/12:00am 24.5 W 17 19 1013.0 - - - - - - - - -
 
Date/Time
WST
Temp

°C
Wind Pressure Rain
since 9am
mm
Weather Cloud Vis
km
Sea
Height
m
Swell
Dir
 
Speed
knots
Gust
knots
hPa Trend Height
m
Period
s
Dir
18/11:30pm 24.6 W 17 19 1013.3 - - - - - - - - -
18/11:00pm 24.6 W 17 19 1013.5 - - - - - - - - -
18/10:30pm 24.6 W 17 19 1013.5 - - - - - - - - -
18/10:00pm 24.9 W 17 19 1013.7 - - - - - - - - -
18/09:30pm 24.8 W 17 19 1013.8 - - - - - - - - -
18/09:00pm 25.0 W 17 20 1013.5 - - - - - - - - -
18/08:30pm 24.9 W 17 19 1013.6 - - - - - - - - -
18/08:00pm 25.0 W 17 19 1013.4 - - - - - - - - -
18/07:30pm 25.2 W 18 19 1013.1 - - - - - - - - -
18/07:00pm 25.4 WNW 17 19 1012.7 - - - - - - - - -
18/06:30pm 25.6 WNW 17 19 1012.3 - - - - - - - - -

Other Formats:

Comma delimited format used in spreadsheet applications
http://www.bom.gov.au/fwo/IDW60701/IDW60701.94310.axf

JavaScript Object Notation format (JSON) in row-major order
http://www.bom.gov.au/fwo/IDW60701/IDW60701.94310.json